Time;durP1;ratioP1;P1;durP2;ratioP2;P2;SDS_P1;SDS_P2;PMS_P1;PMS_P2;Temp;Humidity;BMP_temperature;BMP_pressure;BME280_temperature;BME280_humidity;BME280_pressure;Samples;Min_cycle;Max_cycle;Signal;HPM_P1;HPM_P2
2023/09/18 00:01:06;;;;;;;10.07;7.67;;;19.70;99.90;;;;;;5184895;28;20653;-43
2023/09/18 00:03:37;;;;;;;8.80;7.70;;;19.70;99.90;;;;;;5184145;28;20453;-44
2023/09/18 00:06:08;;;;;;;8.67;7.00;;;19.70;99.90;;;;;;5180566;28;20966;-44
2023/09/18 00:08:39;;;;;;;8.60;7.20;;;19.60;99.90;;;;;;5177726;28;20254;-44
2023/09/18 00:11:11;;;;;;;7.37;6.70;;;19.60;99.90;;;;;;5184118;28;20494;-44
2023/09/18 00:13:42;;;;;;;8.43;7.07;;;19.60;99.90;;;;;;5183066;28;20455;-44
2023/09/18 00:16:12;;;;;;;7.00;6.50;;;19.60;99.90;;;;;;5186333;28;20454;-44
2023/09/18 00:18:44;;;;;;;8.10;7.30;;;19.50;99.90;;;;;;5181799;28;20351;-44
2023/09/18 00:21:15;;;;;;;10.93;7.00;;;19.50;99.90;;;;;;5184881;28;20177;-43
2023/09/18 00:23:46;;;;;;;11.20;6.23;;;19.50;99.90;;;;;;5185751;28;20453;-44
2023/09/18 00:26:16;;;;;;;7.73;6.90;;;19.50;99.90;;;;;;5170563;28;20201;-44
2023/09/18 00:28:47;;;;;;;7.07;6.47;;;19.40;99.90;;;;;;5181172;28;20432;-43
2023/09/18 00:31:19;;;;;;;9.03;7.80;;;19.40;99.90;;;;;;5183073;28;20188;-43
2023/09/18 00:33:50;;;;;;;11.13;7.30;;;19.40;99.90;;;;;;5175931;28;20282;-44
2023/09/18 00:36:20;;;;;;;7.47;6.30;;;19.30;99.90;;;;;;5181112;28;20515;-44
2023/09/18 00:38:51;;;;;;;7.40;6.77;;;19.30;99.90;;;;;;5181423;28;20196;-44
2023/09/18 00:41:22;;;;;;;7.40;5.93;;;19.30;99.90;;;;;;5186296;28;20180;-43
2023/09/18 00:43:52;;;;;;;8.97;6.67;;;19.30;99.90;;;;;;5186709;28;20185;-44
2023/09/18 00:46:24;;;;;;;11.90;6.07;;;19.30;99.90;;;;;;5176044;28;20695;-43
2023/09/18 00:48:55;;;;;;;7.37;6.70;;;19.30;99.90;;;;;;5180768;28;20443;-43
2023/09/18 00:51:26;;;;;;;7.80;7.00;;;19.20;99.90;;;;;;5187554;28;20190;-44
2023/09/18 00:53:57;;;;;;;9.53;6.70;;;19.20;99.90;;;;;;5178334;28;20180;-44
2023/09/18 00:56:27;;;;;;;7.30;6.57;;;19.20;99.90;;;;;;5189744;28;20505;-44
2023/09/18 00:58:59;;;;;;;8.30;7.37;;;19.20;99.90;;;;;;5193359;28;20263;-44
2023/09/18 01:01:32;;;;;;;8.27;7.27;;;19.10;99.90;;;;;;5182895;28;20196;-44
2023/09/18 01:04:02;;;;;;;7.47;6.80;;;19.10;99.90;;;;;;5174015;28;20454;-44
2023/09/18 01:06:33;;;;;;;7.03;6.50;;;19.00;99.90;;;;;;5183086;28;20464;-43
2023/09/18 01:09:12;;;;;;;8.73;6.97;;;19.00;99.90;;;;;;5192811;28;20234;-44
2023/09/18 01:11:47;;;;;;;9.30;6.77;;;19.00;99.90;;;;;;5180733;28;20744;-43
2023/09/18 01:14:31;;;;;;;6.50;5.90;;;19.00;99.90;;;;;;5188709;28;20447;-44
2023/09/18 01:17:05;;;;;;;7.23;6.53;;;18.90;99.90;;;;;;5180600;28;20938;-44
2023/09/18 01:19:46;;;;;;;10.93;6.77;;;18.90;99.90;;;;;;5175089;28;20469;-44
2023/09/18 01:22:18;;;;;;;7.10;6.40;;;18.80;99.90;;;;;;5184509;28;20438;-44
2023/09/18 01:24:49;;;;;;;7.67;6.90;;;18.80;99.90;;;;;;5182285;28;20455;-44
2023/09/18 01:27:19;;;;;;;6.50;5.77;;;18.80;99.90;;;;;;5190792;28;20438;-44
2023/09/18 01:29:51;;;;;;;7.13;6.43;;;18.80;99.90;;;;;;5189757;28;20244;-45
2023/09/18 01:32:26;;;;;;;7.17;6.50;;;18.80;99.90;;;;;;5185402;28;20188;-45
2023/09/18 01:35:00;;;;;;;7.80;6.77;;;18.70;99.90;;;;;;5185841;28;20459;-45
2023/09/18 01:37:32;;;;;;;6.87;6.40;;;18.70;99.90;;;;;;5185258;28;20443;-45
2023/09/18 01:40:06;;;;;;;7.33;6.80;;;18.70;99.90;;;;;;5171554;28;20554;-45
2023/09/18 01:42:38;;;;;;;8.07;7.27;;;18.60;99.90;;;;;;5187462;28;20431;-45
2023/09/18 01:45:09;;;;;;;7.07;6.40;;;18.60;99.90;;;;;;5176322;28;20452;-45
2023/09/18 01:47:39;;;;;;;7.27;6.60;;;18.60;99.90;;;;;;5177662;28;20440;-44
2023/09/18 01:50:10;;;;;;;7.80;7.10;;;18.60;99.90;;;;;;5196748;28;20435;-46
2023/09/18 01:52:41;;;;;;;7.50;6.80;;;18.50;99.90;;;;;;5195718;28;20192;-44
2023/09/18 01:55:12;;;;;;;7.20;6.63;;;18.50;99.90;;;;;;5193771;28;20474;-45
2023/09/18 01:57:42;;;;;;;7.43;6.70;;;18.50;99.90;;;;;;5188316;28;20657;-44
2023/09/18 02:00:14;;;;;;;8.27;7.47;;;18.50;99.90;;;;;;5188733;28;20196;-46
2023/09/18 02:02:45;;;;;;;7.23;6.53;;;18.40;99.90;;;;;;5184386;28;20176;-44
2023/09/18 02:05:15;;;;;;;9.10;7.30;;;18.40;99.90;;;;;;5179496;28;20606;-44
2023/09/18 02:07:46;;;;;;;15.00;6.73;;;18.40;99.90;;;;;;5170920;28;20180;-43
2023/09/18 02:10:17;;;;;;;7.43;6.80;;;18.40;99.90;;;;;;5187256;28;20192;-44
2023/09/18 02:12:47;;;;;;;8.90;6.87;;;18.40;99.90;;;;;;5177922;28;20191;-44
2023/09/18 02:15:18;;;;;;;7.00;6.33;;;18.30;99.90;;;;;;5183593;28;20206;-44
2023/09/18 02:17:48;;;;;;;7.80;6.90;;;18.30;99.90;;;;;;5185603;28;20634;-44
2023/09/18 02:20:19;;;;;;;8.27;7.50;;;18.30;99.90;;;;;;5185207;28;20258;-45
2023/09/18 02:22:50;;;;;;;11.17;7.13;;;18.30;99.90;;;;;;5188978;28;20250;-45
2023/09/18 02:25:20;;;;;;;6.70;6.10;;;18.20;99.90;;;;;;5181514;28;20200;-45
2023/09/18 02:27:51;;;;;;;14.00;7.23;;;18.20;99.90;;;;;;5191003;28;20184;-45
2023/09/18 02:30:22;;;;;;;7.17;6.47;;;18.20;99.90;;;;;;5190068;28;20238;-43
2023/09/18 02:32:52;;;;;;;10.60;6.80;;;18.20;99.90;;;;;;5204639;28;20192;-45
2023/09/18 02:35:23;;;;;;;6.93;6.30;;;18.20;99.90;;;;;;5191928;28;20212;-44
2023/09/18 02:37:54;;;;;;;8.33;6.97;;;18.20;99.90;;;;;;5187808;28;20207;-44
2023/09/18 02:40:24;;;;;;;7.57;6.87;;;18.20;99.90;;;;;;5190376;28;20211;-43
2023/09/18 02:42:55;;;;;;;7.13;6.60;;;18.20;99.90;;;;;;5188643;28;20728;-44
2023/09/18 02:45:25;;;;;;;7.60;5.70;;;18.20;99.90;;;;;;5181837;28;20204;-46
2023/09/18 02:47:56;;;;;;;8.77;7.20;;;18.20;99.90;;;;;;5183678;28;20184;-45
2023/09/18 02:50:27;;;;;;;7.00;6.50;;;18.10;99.90;;;;;;5187245;28;20559;-44
2023/09/18 02:52:58;;;;;;;7.10;6.40;;;18.10;99.90;;;;;;5191237;28;20278;-44
2023/09/18 02:55:29;;;;;;;7.00;6.33;;;18.10;99.90;;;;;;5186104;28;20216;-44
2023/09/18 02:57:59;;;;;;;12.20;6.63;;;18.10;99.90;;;;;;5191219;28;20500;-46
2023/09/18 03:00:30;;;;;;;7.27;6.10;;;18.10;99.90;;;;;;5187228;28;20208;-44
2023/09/18 03:03:00;;;;;;;7.37;6.70;;;18.00;99.90;;;;;;5181356;28;20283;-45
2023/09/18 03:05:32;;;;;;;7.63;6.93;;;18.10;99.90;;;;;;5185373;28;20200;-43
2023/09/18 03:08:03;;;;;;;6.80;6.20;;;18.00;99.90;;;;;;5187542;28;20189;-45
2023/09/18 03:10:34;;;;;;;7.00;6.40;;;18.00;99.90;;;;;;5193071;28;20582;-44
2023/09/18 03:13:07;;;;;;;6.53;6.13;;;18.00;99.90;;;;;;5185713;28;20817;-44
2023/09/18 03:15:38;;;;;;;6.93;6.00;;;17.90;99.90;;;;;;5184540;28;20494;-44
2023/09/18 03:18:09;;;;;;;6.67;6.13;;;17.90;99.90;;;;;;5178872;28;20430;-44
2023/09/18 03:20:40;;;;;;;7.50;6.90;;;17.90;99.90;;;;;;5185278;28;20443;-45
2023/09/18 03:23:10;;;;;;;7.60;5.97;;;17.90;99.90;;;;;;5188470;28;20200;-44
2023/09/18 03:25:41;;;;;;;7.10;6.17;;;17.90;99.90;;;;;;5189948;28;20204;-44
2023/09/18 03:28:12;;;;;;;6.97;6.37;;;17.80;99.90;;;;;;5190368;28;20184;-44
2023/09/18 03:30:42;;;;;;;7.20;6.60;;;17.90;99.90;;;;;;5188317;28;20227;-44
2023/09/18 03:33:13;;;;;;;8.83;6.43;;;17.90;99.90;;;;;;5178577;28;20185;-45
2023/09/18 03:35:51;;;;;;;6.33;5.83;;;17.90;99.90;;;;;;5189713;28;20261;-44
2023/09/18 03:38:22;;;;;;;7.33;6.63;;;17.80;99.90;;;;;;5181358;28;20192;-46
2023/09/18 03:40:52;;;;;;;6.53;5.80;;;17.80;99.90;;;;;;5187283;28;20439;-45
2023/09/18 03:43:23;;;;;;;6.63;6.00;;;17.80;99.90;;;;;;5182838;28;20253;-45
2023/09/18 03:45:54;;;;;;;7.17;6.50;;;17.80;99.90;;;;;;5178370;28;20688;-44
2023/09/18 03:48:24;;;;;;;7.20;6.30;;;17.80;99.90;;;;;;5178011;28;20173;-45
2023/09/18 03:50:56;;;;;;;7.43;6.70;;;17.70;99.90;;;;;;5187465;28;20181;-44
2023/09/18 03:53:26;;;;;;;7.67;6.90;;;17.70;99.90;;;;;;5193737;28;20181;-44
2023/09/18 03:55:57;;;;;;;7.10;6.50;;;17.70;99.90;;;;;;5189739;28;20466;-44
2023/09/18 03:58:28;;;;;;;9.47;6.77;;;17.70;99.90;;;;;;5185086;28;20292;-45
2023/09/18 04:00:58;;;;;;;8.20;7.40;;;17.70;99.90;;;;;;5182661;28;20726;-46
2023/09/18 04:03:29;;;;;;;8.30;6.60;;;17.70;99.90;;;;;;5189285;28;20229;-44
2023/09/18 04:06:00;;;;;;;8.90;7.00;;;17.70;99.90;;;;;;5188514;28;20211;-44
2023/09/18 04:08:30;;;;;;;8.43;7.10;;;17.70;99.90;;;;;;5188580;28;20221;-44
2023/09/18 04:11:04;;;;;;;9.33;7.40;;;17.70;99.90;;;;;;5189005;28;20188;-44
2023/09/18 04:13:34;;;;;;;7.97;6.73;;;17.60;99.90;;;;;;5186771;28;20268;-45
2023/09/18 04:16:05;;;;;;;8.90;6.30;;;17.60;99.90;;;;;;5190979;28;20900;-44
2023/09/18 04:18:36;;;;;;;7.50;6.70;;;17.60;99.90;;;;;;5187585;28;20204;-45
2023/09/18 04:21:06;;;;;;;8.20;7.37;;;17.60;99.90;;;;;;5180531;28;20315;-44
2023/09/18 04:23:37;;;;;;;7.27;6.70;;;17.60;99.90;;;;;;5186256;28;20180;-44
2023/09/18 04:26:08;;;;;;;6.97;6.23;;;17.60;99.90;;;;;;5179073;28;20586;-44
2023/09/18 04:28:38;;;;;;;8.07;6.93;;;17.50;99.90;;;;;;5178709;28;20176;-44
2023/09/18 04:31:09;;;;;;;8.80;6.80;;;17.50;99.90;;;;;;5180952;28;20485;-44
2023/09/18 04:33:40;;;;;;;7.87;7.07;;;17.50;99.90;;;;;;5185363;28;20181;-45
2023/09/18 04:36:11;;;;;;;10.10;7.30;;;17.50;99.90;;;;;;5182597;28;20450;-43
2023/09/18 04:38:41;;;;;;;8.03;7.23;;;17.50;99.90;;;;;;5166457;28;20700;-44
2023/09/18 04:41:14;;;;;;;7.33;6.67;;;17.50;99.90;;;;;;5179054;28;20293;-44
2023/09/18 04:43:45;;;;;;;7.03;6.43;;;17.50;99.90;;;;;;5171351;28;20181;-43
2023/09/18 04:46:15;;;;;;;8.03;7.23;;;17.50;99.90;;;;;;5175236;28;20455;-44
2023/09/18 04:48:46;;;;;;;8.27;7.47;;;17.50;99.90;;;;;;5188596;28;20203;-47
2023/09/18 04:51:17;;;;;;;7.13;6.43;;;17.50;99.90;;;;;;5187183;28;20184;-45
2023/09/18 04:53:48;;;;;;;8.67;7.13;;;17.50;99.90;;;;;;5186166;28;20439;-44
2023/09/18 04:56:20;;;;;;;8.60;7.00;;;17.60;99.90;;;;;;5181580;28;20568;-45
2023/09/18 04:58:50;;;;;;;8.23;6.50;;;17.60;99.90;;;;;;5173519;28;20708;-45
2023/09/18 05:01:21;;;;;;;8.23;6.73;;;17.60;99.90;;;;;;5186823;28;20431;-45
2023/09/18 05:03:52;;;;;;;9.50;7.23;;;17.60;99.90;;;;;;5185571;28;20582;-45
2023/09/18 05:06:23;;;;;;;7.53;6.83;;;17.60;99.90;;;;;;5179145;28;20205;-45
2023/09/18 05:08:54;;;;;;;8.30;7.03;;;17.60;99.90;;;;;;5179805;28;20188;-45
2023/09/18 05:11:24;;;;;;;7.57;6.97;;;17.60;99.90;;;;;;5185505;28;20188;-44
2023/09/18 05:13:55;;;;;;;8.00;7.27;;;17.70;99.90;;;;;;5181830;28;20181;-44
2023/09/18 05:16:26;;;;;;;7.43;6.90;;;17.70;99.90;;;;;;5185053;28;20208;-45
2023/09/18 05:18:56;;;;;;;7.53;6.90;;;17.80;99.90;;;;;;5183603;28;20544;-44
2023/09/18 05:21:27;;;;;;;7.50;6.80;;;17.80;99.90;;;;;;5186425;28;20181;-46
2023/09/18 05:23:58;;;;;;;7.93;7.33;;;17.90;99.90;;;;;;5189362;28;20181;-44
2023/09/18 05:26:30;;;;;;;9.77;6.83;;;17.90;99.90;;;;;;5191509;28;20204;-45
2023/09/18 05:29:00;;;;;;;7.17;6.57;;;18.00;99.90;;;;;;5185475;28;20230;-44
2023/09/18 05:31:31;;;;;;;7.53;7.00;;;18.00;99.90;;;;;;5182274;28;20435;-45
2023/09/18 05:34:02;;;;;;;13.93;7.00;;;18.10;99.90;;;;;;5182940;28;20180;-44
2023/09/18 05:36:32;;;;;;;8.37;7.47;;;18.20;99.90;;;;;;5184939;28;20258;-44
2023/09/18 05:39:04;;;;;;;13.73;7.57;;;18.30;99.90;;;;;;5188619;28;20219;-45
2023/09/18 05:41:35;;;;;;;6.77;6.20;;;18.30;99.90;;;;;;5191486;28;20660;-44
2023/09/18 05:44:07;;;;;;;8.53;7.07;;;18.40;99.90;;;;;;5186198;28;20439;-44
2023/09/18 05:46:38;;;;;;;7.87;6.67;;;18.50;99.90;;;;;;5184146;28;20204;-44
2023/09/18 05:49:10;;;;;;;13.03;7.43;;;18.80;99.90;;;;;;5183848;28;20435;-45
2023/09/18 05:51:40;;;;;;;8.30;7.00;;;19.30;99.90;;;;;;5174116;28;20228;-45
2023/09/18 05:54:11;;;;;;;8.07;7.27;;;19.70;99.90;;;;;;5183389;28;20859;-45
2023/09/18 05:56:42;;;;;;;12.50;6.00;;;20.10;99.90;;;;;;5177474;28;20295;-45
2023/09/18 05:59:12;;;;;;;7.73;6.10;;;21.30;99.90;;;;;;5188210;28;20303;-44
2023/09/18 06:01:43;;;;;;;6.00;5.50;;;22.70;99.90;;;;;;5183937;28;20208;-46
2023/09/18 06:04:14;;;;;;;8.37;5.53;;;23.60;99.90;;;;;;5188524;28;20517;-45
2023/09/18 06:06:45;;;;;;;7.90;6.70;;;24.50;99.90;;;;;;5190532;28;20176;-46
2023/09/18 06:09:16;;;;;;;6.20;5.50;;;24.90;99.90;;;;;;5187773;28;20550;-45
2023/09/18 06:11:46;;;;;;;6.37;5.60;;;25.00;98.50;;;;;;5184618;28;20439;-45
2023/09/18 06:14:17;;;;;;;6.97;5.67;;;25.10;97.80;;;;;;5181343;28;20184;-46
2023/09/18 06:16:47;;;;;;;6.10;5.60;;;25.10;97.00;;;;;;5176674;28;20192;-45
2023/09/18 06:19:18;;;;;;;6.40;5.70;;;24.90;96.50;;;;;;5189371;28;20673;-46
2023/09/18 06:21:49;;;;;;;10.10;6.10;;;24.70;96.60;;;;;;5190514;28;20260;-45
2023/09/18 06:24:20;;;;;;;9.87;5.90;;;24.20;96.80;;;;;;5186398;28;20686;-46
2023/09/18 06:26:51;;;;;;;9.50;6.57;;;23.80;97.90;;;;;;5192292;28;20183;-45
2023/09/18 06:29:21;;;;;;;6.63;6.03;;;24.00;97.90;;;;;;5184298;28;20184;-46
2023/09/18 06:31:52;;;;;;;7.10;5.63;;;24.00;97.50;;;;;;5189958;28;20942;-44
2023/09/18 06:34:22;;;;;;;5.37;5.07;;;23.90;98.10;;;;;;5169412;28;20204;-45
2023/09/18 06:36:53;;;;;;;9.37;5.97;;;23.90;98.00;;;;;;5189261;28;20186;-45
2023/09/18 06:39:25;;;;;;;8.83;6.00;;;23.70;98.20;;;;;;5182193;28;20212;-44
2023/09/18 06:41:56;;;;;;;6.07;5.57;;;23.80;98.30;;;;;;5178911;28;20168;-45
2023/09/18 06:44:27;;;;;;;6.63;5.67;;;24.60;97.10;;;;;;5179886;28;20955;-45
2023/09/18 06:46:57;;;;;;;5.30;5.00;;;25.30;95.50;;;;;;5183970;28;20189;-46
2023/09/18 06:49:28;;;;;;;9.73;6.03;;;26.20;93.70;;;;;;5187775;28;20208;-45
2023/09/18 06:51:59;;;;;;;5.20;4.90;;;27.00;91.20;;;;;;5177568;28;20176;-46
2023/09/18 06:54:29;;;;;;;6.10;5.60;;;27.70;87.90;;;;;;5182964;28;20311;-46
2023/09/18 06:57:00;;;;;;;5.97;5.37;;;28.40;83.30;;;;;;5190808;28;20192;-46
2023/09/18 06:59:32;;;;;;;8.97;5.30;;;29.30;76.90;;;;;;5178575;28;20219;-46
2023/09/18 07:02:03;;;;;;;5.20;4.80;;;29.80;71.80;;;;;;5174653;28;20216;-46
2023/09/18 07:04:33;;;;;;;6.90;4.83;;;29.70;68.90;;;;;;5177847;28;20459;-45
2023/09/18 07:07:04;;;;;;;5.13;4.67;;;29.80;67.40;;;;;;5178134;28;20789;-46
2023/09/18 07:09:34;;;;;;;6.40;5.33;;;30.60;64.80;;;;;;5177624;28;20195;-47
2023/09/18 07:12:05;;;;;;;6.43;5.50;;;31.00;61.10;;;;;;5177762;28;20188;-46
2023/09/18 07:14:37;;;;;;;4.80;4.43;;;30.60;59.90;;;;;;5177265;28;20204;-46
2023/09/18 07:17:08;;;;;;;4.30;4.00;;;30.30;60.60;;;;;;5177822;28;20468;-46
2023/09/18 07:19:39;;;;;;;7.53;4.30;;;30.50;59.50;;;;;;5177577;28;21089;-46
2023/09/18 07:22:10;;;;;;;5.07;4.77;;;30.40;59.90;;;;;;5176564;28;20268;-46
2023/09/18 07:24:42;;;;;;;4.73;4.40;;;30.70;58.80;;;;;;5178829;28;20619;-45
2023/09/18 07:27:13;;;;;;;5.37;4.97;;;30.70;58.50;;;;;;5176425;28;20256;-45
2023/09/18 07:29:44;;;;;;;5.30;4.77;;;31.00;57.50;;;;;;5176063;28;20443;-46
2023/09/18 07:32:14;;;;;;;4.87;4.43;;;31.20;56.80;;;;;;5178041;28;20188;-45
2023/09/18 07:34:47;;;;;;;4.77;4.47;;;31.20;56.60;;;;;;5180429;28;20268;-45
2023/09/18 07:37:20;;;;;;;5.10;4.70;;;31.40;56.40;;;;;;5177067;28;20176;-44
2023/09/18 07:39:51;;;;;;;5.40;4.80;;;32.10;54.70;;;;;;5175730;28;20725;-47
2023/09/18 07:42:25;;;;;;;4.33;3.97;;;32.40;53.60;;;;;;5176838;28;20511;-46
2023/09/18 07:44:56;;;;;;;4.40;4.03;;;32.80;52.70;;;;;;5177164;28;20287;-45
2023/09/18 07:47:26;;;;;;;6.37;4.43;;;32.30;52.60;;;;;;5174860;28;20511;-46
2023/09/18 07:49:57;;;;;;;4.50;4.10;;;32.00;53.40;;;;;;5175265;28;20188;-45
2023/09/18 07:52:29;;;;;;;4.60;3.70;;;32.30;52.90;;;;;;5174200;28;20200;-45
2023/09/18 07:54:59;;;;;;;4.40;4.00;;;32.40;52.60;;;;;;5175582;28;20208;-46
2023/09/18 07:57:32;;;;;;;4.23;3.90;;;32.00;53.50;;;;;;5175448;28;20939;-46
2023/09/18 08:00:07;;;;;;;3.87;3.67;;;31.20;54.50;;;;;;5177584;28;20222;-46
2023/09/18 08:02:41;;;;;;;7.70;4.73;;;30.00;56.80;;;;;;5175725;28;20518;-45
2023/09/18 08:05:13;;;;;;;4.60;3.70;;;28.60;59.50;;;;;;5176675;28;20459;-45
2023/09/18 08:07:43;;;;;;;5.00;4.50;;;28.10;61.80;;;;;;5174698;28;20438;-45
2023/09/18 08:10:14;;;;;;;4.30;3.90;;;27.20;64.00;;;;;;5175797;28;20444;-46
2023/09/18 08:12:45;;;;;;;4.20;4.00;;;26.80;65.70;;;;;;5180365;28;20216;-45
2023/09/18 08:15:15;;;;;;;4.80;4.50;;;26.60;67.50;;;;;;5177773;28;20259;-46
2023/09/18 08:17:48;;;;;;;4.97;4.53;;;26.20;68.50;;;;;;5178085;28;20208;-46
2023/09/18 08:20:18;;;;;;;7.87;4.73;;;25.60;70.20;;;;;;5175397;28;20243;-46
2023/09/18 08:22:50;;;;;;;3.63;3.43;;;25.30;72.80;;;;;;5170662;28;20533;-45
2023/09/18 08:25:21;;;;;;;4.13;3.93;;;25.10;73.50;;;;;;5174423;28;20204;-45
2023/09/18 08:27:51;;;;;;;5.17;4.77;;;24.80;74.10;;;;;;5178038;28;20526;-46
2023/09/18 08:30:22;;;;;;;8.10;4.20;;;24.50;75.60;;;;;;5179695;28;20667;-45
2023/09/18 08:32:52;;;;;;;5.50;5.00;;;24.20;76.80;;;;;;5181762;28;20316;-46
2023/09/18 08:35:27;;;;;;;4.23;3.93;;;24.10;77.50;;;;;;5182800;28;20223;-46
2023/09/18 08:37:58;;;;;;;4.93;4.47;;;24.10;78.90;;;;;;5179965;28;20195;-46
2023/09/18 08:40:29;;;;;;;3.97;3.67;;;24.10;79.60;;;;;;5178617;28;20483;-46
2023/09/18 08:43:03;;;;;;;4.03;3.73;;;24.20;80.00;;;;;;5179835;28;20184;-45
2023/09/18 08:45:51;;;;;;;11.17;4.83;;;24.30;80.40;;;;;;5180442;28;20455;-47
2023/09/18 08:48:24;;;;;;;4.87;4.27;;;24.20;80.60;;;;;;5180656;28;20482;-46
2023/09/18 08:50:54;;;;;;;5.43;4.50;;;24.30;81.50;;;;;;5180511;28;20446;-46
2023/09/18 08:53:25;;;;;;;4.70;4.30;;;24.40;81.30;;;;;;5179109;28;20530;-46
2023/09/18 08:55:58;;;;;;;6.50;4.27;;;24.60;81.20;;;;;;5178119;28;20304;-46
2023/09/18 08:58:35;;;;;;;4.10;3.90;;;24.70;80.60;;;;;;5179589;28;20235;-47
2023/09/18 09:01:09;;;;;;;4.33;4.00;;;24.90;81.00;;;;;;5199906;28;20501;-46
2023/09/18 09:03:47;;;;;;;19.87;4.43;;;25.30;80.50;;;;;;5184995;28;20443;-46
2023/09/18 09:06:18;;;;;;;4.00;3.70;;;25.50;79.80;;;;;;5181843;28;20465;-45
2023/09/18 09:08:50;;;;;;;4.30;4.00;;;25.60;79.50;;;;;;5188718;28;20445;-46
2023/09/18 09:11:21;;;;;;;6.27;4.10;;;25.60;78.80;;;;;;5187730;28;20238;-46
2023/09/18 09:14:17;;;;;;;3.40;3.17;;;25.60;78.90;;;;;;5187550;28;20508;-46
2023/09/18 09:16:52;;;;;;;4.30;4.00;;;25.60;78.70;;;;;;5190958;28;20189;-45
2023/09/18 09:19:42;;;;;;;4.33;3.80;;;25.80;78.20;;;;;;5163422;28;20813;-45
2023/09/18 09:22:20;;;;;;;4.10;3.80;;;25.90;77.70;;;;;;5183582;28;20862;-46
2023/09/18 09:24:51;;;;;;;5.20;3.93;;;26.00;77.00;;;;;;5180231;28;20462;-46
2023/09/18 09:27:21;;;;;;;3.10;2.90;;;26.10;77.40;;;;;;5181187;28;20503;-46
2023/09/18 09:29:59;;;;;;;3.80;3.60;;;26.30;76.60;;;;;;5163137;28;20188;-47
2023/09/18 09:32:33;;;;;;;3.53;3.43;;;26.50;76.20;;;;;;5176970;28;20192;-48
2023/09/18 09:35:07;;;;;;;4.53;4.17;;;26.40;75.70;;;;;;5174686;28;20460;-47
2023/09/18 09:37:38;;;;;;;4.97;3.57;;;26.40;76.00;;;;;;5178055;28;20834;-47
2023/09/18 09:40:14;;;;;;;4.03;3.73;;;26.50;75.10;;;;;;5176125;28;20470;-49
2023/09/18 09:42:46;;;;;;;3.53;3.20;;;26.60;74.10;;;;;;5175878;28;20822;-47
2023/09/18 09:45:18;;;;;;;4.77;4.40;;;26.80;73.60;;;;;;5175375;28;20476;-48
2023/09/18 09:47:53;;;;;;;3.67;3.43;;;26.90;72.80;;;;;;5175309;28;20435;-47
2023/09/18 09:50:25;;;;;;;5.60;4.10;;;26.90;71.70;;;;;;5178285;28;20439;-47
2023/09/18 09:52:56;;;;;;;6.00;3.33;;;27.00;71.70;;;;;;5178190;28;21220;-48
2023/09/18 09:55:31;;;;;;;3.40;3.20;;;27.20;71.30;;;;;;5199194;28;20467;-48
2023/09/18 09:58:03;;;;;;;3.97;3.60;;;27.30;71.40;;;;;;5175825;28;20640;-49
2023/09/18 10:00:49;;;;;;;3.10;3.00;;;27.70;70.60;;;;;;5177275;28;20470;-48
2023/09/18 10:03:21;;;;;;;4.03;3.07;;;27.70;69.70;;;;;;5176548;28;20462;-47
2023/09/18 10:05:53;;;;;;;5.57;3.17;;;27.80;69.60;;;;;;5172254;28;20471;-48
2023/09/18 10:08:26;;;;;;;4.00;3.70;;;27.80;68.80;;;;;;5172697;28;20439;-48
2023/09/18 10:11:07;;;;;;;3.40;3.20;;;27.80;69.10;;;;;;5170459;28;20442;-48
2023/09/18 10:13:46;;;;;;;4.23;3.83;;;27.60;69.40;;;;;;5176967;28;20904;-48
2023/09/18 10:16:21;;;;;;;4.53;4.23;;;27.50;69.50;;;;;;5172929;28;20451;-48
2023/09/18 10:19:13;;;;;;;3.63;3.33;;;27.30;69.90;;;;;;5169526;28;20844;-49
2023/09/18 10:22:05;;;;;;;5.00;4.60;;;27.40;70.50;;;;;;5173679;28;20522;-48
2023/09/18 10:24:37;;;;;;;3.10;2.90;;;27.30;71.10;;;;;;5176056;28;20447;-49
2023/09/18 10:27:11;;;;;;;3.90;3.33;;;27.40;70.10;;;;;;5172289;28;20439;-47
2023/09/18 10:29:44;;;;;;;4.83;3.57;;;27.30;70.30;;;;;;5172423;28;20447;-46
2023/09/18 10:32:15;;;;;;;4.40;3.40;;;27.20;70.70;;;;;;5170614;28;20531;-47
2023/09/18 10:34:48;;;;;;;3.67;3.37;;;27.20;70.60;;;;;;5168401;28;20511;-46
2023/09/18 10:37:19;;;;;;;6.30;3.90;;;27.10;70.50;;;;;;5175246;28;20443;-48
2023/09/18 10:39:53;;;;;;;3.27;3.03;;;27.10;70.90;;;;;;5170924;28;20605;-45
2023/09/18 10:42:24;;;;;;;6.47;3.70;;;27.30;71.20;;;;;;5174158;28;20448;-47
2023/09/18 10:44:55;;;;;;;3.60;3.47;;;27.70;70.50;;;;;;5174134;28;20466;-47
2023/09/18 10:47:27;;;;;;;4.40;3.30;;;28.00;69.00;;;;;;5174973;28;20212;-46
2023/09/18 10:49:57;;;;;;;16.90;6.20;;;28.30;68.10;;;;;;5155801;28;20449;-48
2023/09/18 10:52:28;;;;;;;5.57;4.50;;;28.50;67.00;;;;;;5175519;28;20427;-47
2023/09/18 10:55:02;;;;;;;14.07;3.63;;;28.30;67.00;;;;;;5172268;28;20355;-48
2023/09/18 10:57:38;;;;;;;3.63;3.40;;;28.00;66.90;;;;;;5173556;28;20442;-48
2023/09/18 11:00:14;;;;;;;3.33;3.03;;;27.70;66.70;;;;;;5173937;28;20465;-47
2023/09/18 11:02:45;;;;;;;3.10;3.00;;;27.50;66.60;;;;;;5175043;28;20442;-46
2023/09/18 11:05:29;;;;;;;3.77;3.47;;;27.60;66.60;;;;;;5172223;28;20481;-46
2023/09/18 11:08:28;;;;;;;3.27;3.00;;;27.40;66.60;;;;;;5173583;28;20934;-48
2023/09/18 11:11:04;;;;;;;4.53;2.70;;;27.40;66.90;;;;;;5176793;28;20427;-46
2023/09/18 11:13:43;;;;;;;4.37;3.20;;;27.60;66.40;;;;;;5176558;28;20801;-47
2023/09/18 11:16:19;;;;;;;5.77;3.80;;;27.60;65.70;;;;;;5169885;28;20574;-46
2023/09/18 11:19:15;;;;;;;4.60;3.90;;;27.50;66.60;;;;;;5182056;28;20501;-46
2023/09/18 11:21:46;;;;;;;6.33;5.50;;;27.50;66.80;;;;;;5187127;28;20904;-47
2023/09/18 11:24:20;;;;;;;4.87;4.40;;;27.50;67.20;;;;;;5176754;28;20462;-47
2023/09/18 11:26:52;;;;;;;7.43;3.70;;;27.40;67.40;;;;;;5176464;28;20236;-48
2023/09/18 11:29:23;;;;;;;4.50;3.60;;;27.40;67.40;;;;;;5187077;28;20427;-47
2023/09/18 11:31:57;;;;;;;4.13;3.83;;;27.40;67.80;;;;;;5181596;28;20458;-50
2023/09/18 11:34:36;;;;;;;8.20;3.57;;;27.40;67.90;;;;;;5176772;28;21040;-48
2023/09/18 11:37:20;;;;;;;6.90;3.33;;;27.40;68.00;;;;;;5171193;28;20534;-48
2023/09/18 11:39:51;;;;;;;3.90;3.60;;;27.40;68.20;;;;;;5187222;28;20562;-50
2023/09/18 11:42:22;;;;;;;5.90;4.00;;;27.40;68.50;;;;;;5171265;28;21077;-49
2023/09/18 11:44:53;;;;;;;7.03;3.90;;;27.50;68.70;;;;;;5177734;28;20544;-46
2023/09/18 11:47:26;;;;;;;3.80;3.50;;;27.40;68.50;;;;;;5177265;28;20189;-48
2023/09/18 11:49:58;;;;;;;22.63;4.07;;;27.20;68.90;;;;;;5159827;28;20177;-48
2023/09/18 11:52:30;;;;;;;3.30;3.03;;;27.10;69.00;;;;;;5182133;28;20446;-46
2023/09/18 11:55:01;;;;;;;11.13;4.33;;;27.00;69.40;;;;;;5180765;28;20463;-48
2023/09/18 11:57:35;;;;;;;4.23;3.63;;;26.90;69.50;;;;;;5163851;28;20445;-48
2023/09/18 12:00:22;;;;;;;5.33;4.50;;;26.70;70.20;;;;;;5175205;28;20329;-47
2023/09/18 12:02:52;;;;;;;4.20;3.80;;;26.60;71.10;;;;;;5181993;28;20442;-47
2023/09/18 12:05:26;;;;;;;5.30;4.43;;;26.50;71.20;;;;;;5180582;28;20800;-49
2023/09/18 12:07:57;;;;;;;4.77;4.37;;;26.50;71.80;;;;;;5179276;28;20177;-47
2023/09/18 12:10:28;;;;;;;3.67;3.37;;;26.70;72.20;;;;;;5176105;28;20439;-48
2023/09/18 12:12:59;;;;;;;5.60;3.40;;;26.60;72.20;;;;;;5177546;28;20439;-49
2023/09/18 12:15:29;;;;;;;6.90;4.30;;;26.70;72.20;;;;;;5146504;28;20196;-50
2023/09/18 12:18:09;;;;;;;4.87;4.37;;;27.00;71.60;;;;;;5177651;28;20219;-48
2023/09/18 12:20:49;;;;;;;4.30;4.00;;;27.30;71.00;;;;;;5174469;28;20241;-46
2023/09/18 12:23:20;;;;;;;4.10;3.50;;;27.50;70.90;;;;;;5160039;28;20428;-48
2023/09/18 12:25:59;;;;;;;4.27;3.90;;;27.50;70.00;;;;;;5177840;28;20455;-47
2023/09/18 12:28:31;;;;;;;2.87;2.77;;;27.60;69.80;;;;;;5181176;28;20177;-47
2023/09/18 12:31:06;;;;;;;5.27;3.00;;;27.80;69.10;;;;;;5180712;28;20431;-46
2023/09/18 12:33:37;;;;;;;3.37;3.10;;;28.00;68.00;;;;;;5180192;28;20746;-49
2023/09/18 12:36:08;;;;;;;3.90;3.60;;;28.00;67.50;;;;;;5177661;28;20502;-53
2023/09/18 12:38:39;;;;;;;3.47;3.27;;;28.10;66.60;;;;;;5177916;28;20442;-50
2023/09/18 12:41:11;;;;;;;4.07;3.70;;;28.20;66.00;;;;;;5174939;28;20436;-50
2023/09/18 12:43:43;;;;;;;2.80;2.70;;;28.10;66.10;;;;;;5176820;28;20184;-53
2023/09/18 12:46:14;;;;;;;9.30;3.57;;;27.80;66.70;;;;;;5164192;28;20793;-52
2023/09/18 12:48:46;;;;;;;4.53;3.17;;;27.60;67.20;;;;;;5175711;28;20445;-51
2023/09/18 12:51:22;;;;;;;6.43;4.47;;;27.40;67.20;;;;;;5175471;28;20514;-51
2023/09/18 12:54:00;;;;;;;3.00;2.80;;;27.30;67.40;;;;;;5182656;28;20536;-50
2023/09/18 12:56:31;;;;;;;6.20;3.13;;;27.10;67.80;;;;;;5176089;28;20502;-52
2023/09/18 12:59:03;;;;;;;6.23;3.20;;;26.90;68.50;;;;;;5175304;28;20498;-51
2023/09/18 13:01:34;;;;;;;9.77;4.43;;;26.80;69.00;;;;;;5178318;28;20189;-51
2023/09/18 13:04:05;;;;;;;3.10;2.90;;;26.80;69.40;;;;;;5179020;28;20438;-50
2023/09/18 13:06:38;;;;;;;4.73;4.07;;;26.80;69.60;;;;;;5179117;28;20235;-50
2023/09/18 13:09:19;;;;;;;4.20;3.90;;;26.60;70.20;;;;;;5178564;28;20466;-51
2023/09/18 13:11:57;;;;;;;4.97;3.10;;;26.50;70.50;;;;;;5181400;28;20992;-50